Home Team Position History
You can show your support by sponsoring this page for $50.  
Your ad/message will appear in this space for one year.  
Thank you for your support!       Team History Index Detroit Tigers
         
          Left Field
             
Pos St All- Other Left Field Fielding Statistics Pos St Batting Statistics as Left Fielder Win Shares Pos St
Year Rank Rank Name HOF MVP Star Rookie GG SS Team Stdg Bats Age Pos Games PO Assts Err DP F Pct. Year Rank Rank Name At Bats Hits 2B 3B HR Runs RBI BB IBB SO HP SH SF SB CS GDP BA OBA SA OPS RC B WS F WS T WS BWS/G FWS/G TWS/G Adj WSQ Year Rank Rank Name
1901 6 6 Doc Nance     DET 3 R 24   130 236 20 19 6 .931   1901 6 6 Doc Nance 454 127 24 5 3 71 65 50 3 24 9 .280 .355 .374 .729 74   8.2 4.3 12.5 .063 .033 .096 11.54 1901 6 6 Doc Nance
         
1902 7 7 Dick Harley     DET 7 L 29   125 238 15 19 1 .930   1902 7 7 Dick Harley 491 138 9 8 2 59 44 36 12 10 20 .281 .345 .344 .689 71   8.9 2.4 11.3 .071 .019 .090 8.79 1902 7 7 Dick Harley
         
1903 4 4 Billy Lush     DET 5 B 29   89 200 15 7 3 .968   1903 4 4 Billy Lush 316 87 13 10 1 53 25 52 1 25 10 .275 .379 .389 .768 55   11.2 3.0 14.2 .126 .034 .160 15.27 1903 4 4 Billy Lush
1903 5 Sam Crawford Vet     DET 5 L 23 RF   45 74 5 3 1 .963   1903 5 Sam Crawford 181 60 8 8 1 29 29 8 1 8 6 .331 .363 .481 .844 33   7.4 1.2 8.6 .164 .027 .191 10.12 1903 5 Sam Crawford
         
1904 6 5 Matty McIntyre     DET 7 L 24   151 332 16 15 4 .959   1904 6 5 Matty McIntyre 574 145 11 10 2 74 46 44 4 28 11 .253 .310 .317 .627 65   12.8 4.0 16.8 .085 .026 .111 14.70 1904 6 5 Matty McIntyre
         
1905 4 4 Matty McIntyre     DET 3 L 25   131 286 18 10 6 .968   1905 4 4 Matty McIntyre 495 130 21 5 0 59 30 48 2 6 9 .263 .330 .325 .655 59   15.7 4.7 20.4 .120 .036 .156 21.34 1905 4 4 Matty McIntyre
         
1906 3 3 Matty McIntyre     DET 6 L 26   132 251 25 5 8 .982   1906 3 3 Matty McIntyre 489 127 19 11 0 63 39 56 2 8 29 .260 .338 .344 .682 71   15.3 3.5 18.8 .116 .027 .142 19.97 1906 3 3 Matty McIntyre
         
1907 3 3 Davy Jones     DET 1 L 27   121 270 15 9 2 .969   1907 3 3 Davy Jones 475 130 10 6 0 98 26 58 4 11 29 .274 .358 .320 .678 77   18.8 3.9 22.7 .155 .032 .188 25.99 1907 3 3 Davy Jones
1907 11 Matty McIntyre     DET 1 L 27   20 43 3 0 1 1.000   1907 11 Matty McIntyre 81 23 1 1 0 6 9 7 0 1 3 .284 .341 .321 .662 12   2.8 0.7 3.5 .140 .035 .175 3.87 1907 11 Matty McIntyre
         
1908 1 1 Matty McIntyre     DET 1 L 28   151 329 17 8 4 .977   1908 1 1 Matty McIntyre 569 168 24 13 0 105 28 83 7 13 20 .295 .392 .383 .775 102   29.4 4.0 33.4 .195 .026 .221 39.63 1908 1 1 Matty McIntyre
         
1909 3 3 Matty McIntyre     DET 1 L 29   119 210 14 6 1 .974   1909 3 3 Matty McIntyre 464 113 18 9 1 63 33 53 3 9 13 .244 .325 .328 .653 58   10.7 4.0 14.7 .090 .034 .124 14.21 1909 3 3 Matty McIntyre
1909 10 Davy Jones     DET 1 L 29   42 71 3 2 1 .974   1909 10 Davy Jones 150 42 1 1 0 32 7 21 1 4 9 .280 .372 .300 .672 21   4.6 1.2 5.8 .110 .029 .138 5.93 1909 10 Davy Jones
         
1910 4 4 Davy Jones     DET 3 L 30   95 167 12 9 2 .952   1910 4 4 Davy Jones 355 94 6 6 0 72 23 48 6 8 24 .265 .362 .315 .677 52   11.1 2.2 13.3 .117 .023 .140 14.62 1910 4 4 Davy Jones
1910 10 Matty McIntyre     DET 3 L 30   58 103 9 7 1 .941   1910 10 Matty McIntyre 230 54 11 4 0 30 19 29 0 2 3 .235 .320 .317 .637 27   4.8 1.6 6.4 .083 .028 .110 6.25 1910 10 Matty McIntyre
         
1911 8 7 Davy Jones     DET 2 L 31   92 156 15 9 3 .950   1911 8 7 Davy Jones 341 93 10 0 0 78 19 41 2 7 25 .273 .354 .302 .656 46   6.1 1.8 7.9 .066 .020 .086 6.86 1911 8 7 Davy Jones
1911 10 Delos Drake   R   DET 2 R 24   74 122 4 8 1 .940   1911 10 Delos Drake 271 76 8 8 1 32 31 15 3 6 17 .280 .325 .380 .705 37   5.3 1.0 6.3 .072 .014 .085 5.45 1911 10 Delos Drake
         
1912 6 5 Davy Jones     DET 6 L 32   72 123 11 6 4 .957   1912 6 5 Davy Jones 281 83 4 2 0 48 21 34 0 11 14 .295 .371 .324 .695 40   6.7 1.1 7.8 .093 .015 .108 8.04 1912 6 5 Davy Jones
1912 12 Jim Delahanty     DET 6 R 33 2B   33 53 3 7 0 .889   1912 12 Jim Delahanty 114 33 6 0 0 15 18 18 3 3 4 .289 .400 .342 .742 19   3.5 0.4 3.9 .106 .012 .118 4.20 1912 12 Jim Delahanty
1912 18 Ossie Vitt   R   DET 6 R 22 3B   25 46 2 4 1 .923   1912 18 Ossie Vitt 103 25 2 2 0 15 7 7 1 2 6 .243 .297 .301 .598 11   0.9 0.4 1.3 .036 .016 .052 0.93 1912 18 Ossie Vitt
1912 13 Bobby Veach   R   DET 6 L 24   22 46 5 4 0 .927   1912 13 Bobby Veach 79 27 5 1 0 8 15 5 1 3 2 .342 .388 .430 .818 14   2.8 0.5 3.3 .127 .023 .150 4.00 1912 13 Bobby Veach
         
1913 5 5 Bobby Veach   R   DET 6 L 25   136 250 16 24 3 .917   1913 5 5 Bobby Veach 491 132 22 10 0 54 64 53 31 5 15 22 .269 .346 .354 .700 63   11.3 1.7 13.0 .083 .013 .096 12.75 1913 5 5 Bobby Veach
         
1914 3 3 Bobby Veach     DET 4 L 26   145 282 22 11 6 .965   1914 3 3 Bobby Veach 531 146 19 14 1 56 72 50 29 3 22 20 20 .275 .341 .369 .710 65   12.7 4.9 17.6 .088 .034 .121 17.65 1914 3 3 Bobby Veach
         
1915 1 1 Bobby Veach     DET 2 L 27   152 297 19 8 4 .975   1915 1 1 Bobby Veach 569 178 40 10 3 81 112 68 43 4 18 16 19 .313 .390 .434 .824 105   24.2 5.7 29.9 .159 .038 .197 37.21 1915 1 1 Bobby Veach
         
1916 2 2 Bobby Veach     DET 3 L 28   150 342 14 12 4 .967   1916 2 2 Bobby Veach 566 173 33 15 3 92 91 52 41 3 24 24 15 .306 .367 .433 .800 93   22.5 5.0 27.5 .150 .033 .183 31.65 1916 2 2 Bobby Veach
         
1917 1 1 Bobby Veach     DET 4 L 29   154 356 17 17 5 .956   1917 1 1 Bobby Veach 571 182 31 12 8 79 103 61 44 9 25 21 .319 .393 .457 .850 108   26.6 4.0 30.6 .173 .026 .199 36.41 1917 1 1 Bobby Veach
         
1918 2 1 Bobby Veach     DET 7 L 30   124 270 14 7 3 .976   1918 2 1 Bobby Veach 483 135 20 13 3 57 76 34 22 4 16 20 .280 .332 .393 .725 63   15.1 1.7 16.8 .122 .014 .135 18.02 1918 2 1 Bobby Veach
         
1919 2 2 Bobby Veach     DET 4 L 31   138 338 14 12 3 .967   1919 2 2 Bobby Veach 538 191 45 17 3 87 101 33 33 5 22 19 .355 .398 .519 .917 102   27.3 4.3 31.6 .198 .031 .229 38.88 1919 2 2 Bobby Veach
         
Pos St All- Other Left Field Fielding Statistics Pos St Batting Statistics as Left Fielder Win Shares Pos St
Year Rank Rank Name HOF MVP Star Rookie GG SS Team Stdg Bats Age Pos Games PO Assts Err DP F Pct. Year Rank Rank Name At Bats Hits 2B 3B HR Runs RBI BB IBB SO HP SH SF SB CS GDP BA OBA SA OPS RC B WS F WS T WS BWS/G FWS/G TWS/G Adj WSQ Year Rank Rank Name
1920 2 2 Bobby Veach     DET 7 L 32   154 357 26 13 4 .967   1920 2 2 Bobby Veach 612 188 39 15 11 92 113 36 22 7 15 11 7 .307 .353 .474 .827 101   18.1 6.9 25.0 .118 .045 .162 26.94 1920 2 2 Bobby Veach
         
1921 3 3 Bobby Veach     DET 6 L 33   149 384 21 11 4 .974   1921 3 3 Bobby Veach 612 207 43 13 16 110 128 48 31 1 27 14 10 .338 .387 .529 .916 115   18.1 4.3 22.4 .121 .029 .150 22.76 1921 3 3 Bobby Veach
         
1922 3 3 Bobby Veach     DET 3 L 34   154 375 16 7 3 .982   1922 3 3 Bobby Veach 618 202 34 13 9 96 126 42 27 8 36 9 1 .327 .377 .468 .845 106   18.7 3.6 22.3 .121 .023 .145 22.86 1922 3 3 Bobby Veach
         
1923 7 7 Heinie Manush Vet   R   DET 2 L 21   72 144 5 7 0 .955   1923 7 7 Heinie Manush 281 94 18 5 4 54 49 18 19 15 12 3 5 .335 .404 .477 .881 53   10.0 1.0 11.0 .139 .014 .153 11.17 1923 7 7 Heinie Manush
1923 11 Bob Fothergill     DET 2 R 25 CF   45 73 3 2 0 .974   1923 11 Bob Fothergill 159 50 12 1 1 23 32 8 13 3 7 3 3 .314 .359 .421 .780 24   3.8 0.5 4.3 .084 .011 .096 3.45 1923 11 Bob Fothergill
1923 10 Bobby Veach     DET 2 L 35 RF   46 65 3 4 0 .944   1923 10 Bobby Veach 157 50 7 2 1 24 21 16 11 2 7 5 2 .318 .389 .408 .797 26   4.4 0.4 4.8 .096 .009 .104 4.03 1923 10 Bobby Veach
         
1924 8 7 Heinie Manush Vet     DET 3 L 22   99 208 4 5 1 .977   1924 8 7 Heinie Manush 390 113 22 7 8 77 63 25 28 15 19 13 5 .290 .356 .444 .800 64   10.4 1.7 12.1 .105 .017 .122 11.36 1924 8 7 Heinie Manush
1924 12 Bob Fothergill     DET 3 R 26   43 85 2 3 1 .967   1924 12 Bob Fothergill 159 48 8 3 0 27 14 5 12 1 7 2 3 .302 .327 .390 .717 19   2.2 0.7 2.9 .051 .016 .067 2.02 1924 12 Bob Fothergill
1924 11 Al Wingo   R   DET 3 L 26   30 39 2 3 1 .932   1924 11 Al Wingo 105 30 8 1 1 15 18 15 9 0 2 1 3 .286 .375 .410 .785 16   2.4 0.3 2.7 .080 .010 .090 2.17 1924 11 Al Wingo
         
1925 2 2 Al Wingo T12     DET 4 L 27   120 276 16 9 6 .970   1925 2 2 Al Wingo 433 160 33 10 5 102 67 68 30 0 15 14 13 .370 .455 .527 .982 101   19.0 2.7 21.7 .158 .023 .181 25.77 1925 2 2 Al Wingo
1925 11 Bob Fothergill     DET 4 R 27   40 74 4 2 1 .975   1925 11 Bob Fothergill 136 48 9 0 1 25 19 4 2 1 7 2 1 .353 .376 .441 .817 23   3.4 0.7 4.1 .085 .018 .103 3.67 1925 11 Bob Fothergill
         
1926 5 5 Bob Fothergill T12     DET 6 R 28   76 169 2 7 0 .961   1926 5 5 Bob Fothergill 283 104 23 5 2 46 53 24 17 2 10 3 9 .367 .421 .505 .926 55   11.6 0.9 12.5 .153 .012 .164 13.94 1926 5 5 Bob Fothergill
1926 9 Al Wingo     DET 6 L 28   61 126 10 11 1 .925   1926 9 Al Wingo 236 67 15 0 1 36 36 41 25 0 8 3 2 .284 .390 .360 .750 36   6.0 0.6 6.6 .098 .010 .108 5.97 1926 9 Al Wingo
         
1927 3 2 Bob Fothergill     DET 4 R 29   137 315 3 13 1 .961   1927 3 2 Bob Fothergill 527 189 38 9 9 93 114 47 31 2 17 9 15 .359 .413 .516 .929 108   19.3 2.7 22.0 .141 .020 .161 23.88 1927 3 2 Bob Fothergill
1927 14 Art Ruble   R   DET 4 L 24   24 31 2 1 1 .971   1927 14 Art Ruble 50 8 2 1 0 9 6 8 8 1 4 1 1 .160 .288 .240 .528 4   - 0.3 0.3 .000 .013 .013 0.09 1927 14 Art Ruble
         
1928 8 7 Bob Fothergill     DET 6 R 30 RF   70 139 5 6 0 .960   1928 8 7 Bob Fothergill 270 86 22 8 2 38 49 19 15 2 8 6 2 .319 .368 .481 .849 47   8.0 1.0 9.0 .114 .014 .129 8.37 1928 8 7 Bob Fothergill
1928 15 Al Wingo     DET 6 L 30 CF   35 64 3 3 0 .957   1928 15 Al Wingo 123 35 7 1 1 15 15 20 9 1 2 1 1 .285 .389 .382 .771 20   3.1 0.4 3.5 .089 .011 .100 2.87 1928 15 Al Wingo
1928 13 Paul Easterling   R   DET 6 R 22   32 64 2 6 0 .917   1928 13 Paul Easterling 107 35 7 1 3 16 11 8 23 1 1 2 1 .327 .379 .495 .874 19   3.3 0.4 3.7 .103 .013 .116 3.26 1928 13 Paul Easterling
1928 11 John Stone   R   DET 6 L 22   26 49 2 2 0 .962   1928 11 John Stone 113 40 10 3 2 20 21 5 8 1 3 1 0 .354 .387 .549 .936 23   4.4 0.4 4.8 .169 .015 .185 5.35 1928 11 John Stone
         
1929 6 5 Roy Johnson   R   DET 6 L 26 CF,RF   91 210 15 19 3 .922   1929 6 5 Roy Johnson 386 121 27 8 6 77 42 40 36 0 4 12 9 .313 .378 .472 .850 69   10.3 1.2 11.5 .113 .013 .126 11.28 1929 6 5 Roy Johnson
1929 7 Bob Fothergill     DET 6 R 31 RF   39 77 1 3 1 .963   1929 7 Bob Fothergill 183 65 16 6 4 28 41 7 7 0 3 2 1 .355 .379 .574 .953 38   6.4 0.4 6.8 .164 .010 .174 7.84 1929 7 Bob Fothergill
1929 12 John Stone   R   DET 6 L 23   35 64 4 1 0 .986   1929 12 John Stone 142 37 10 2 2 22 14 10 12 0 2 1 1 .261 .309 .401 .710 18   1.8 0.4 2.2 .051 .011 .063 1.52 1929 12 John Stone
         
1930 6 5 John Stone     DET 5 L 24   93 181 4 7 1 .964   1930 6 5 John Stone 359 112 25 9 3 51 47 27 41 1 6 5 8 .312 .362 .457 .819 57   7.1 1.8 8.9 .076 .019 .096 7.54 1930 6 5 John Stone
1930 16 Bob Fothergill       DET 5 R 32 RF   32 45 1 3 0 .939   1930 16 Bob Fothergill 120 31 8 2 1 12 12 5 8 0 3 1 1 .258 .288 .383 .671 14   1.1 0.3 1.4 .034 .009 .044 0.80 1930 16 Bob Fothergill
           
1931 6 5 John Stone 16     DET 7 L 25   143 305 11 14 6 .958   1931 6 5 John Stone 564 185 27 11 10 83 73 54 46 2 5 13 13 .328 .389 .468 .857 94   12.4 3.9 16.3 .087 .027 .114 14.70 1931 6 5 John Stone
         
1932 6 5 John Stone     DET 5 L 26 CF   90 187 7 9 1 .956   1932 6 5 John Stone 366 109 22 8 11 67 68 37 40 0 2 1 1 .298 .362 .492 .854 69   11.1 2.1 13.2 .123 .023 .147 13.62 1932 6 5 John Stone
1932 10 Gee Walker T29     DET 5 R 24 CF   39 83 3 6 0 .935   1932 10 Gee Walker 159 51 11 2 3 23 26 4 13 1 2 10 2 .321 .341 .472 .813 27   4.2 1.0 5.2 .108 .026 .133 5.12 1932 10 Gee Walker
         
1933 9 8 Gee Walker   DET 5 R 25   92 186 8 12 2 .942   1933 9 8 Gee Walker 393 110 24 6 7 55 52 12 40 2 5 21 7 .280 .305 .425 .730 52   5.9 2.1 8.0 .064 .023 .087 6.57 1933 9 8 Gee Walker
1933 14 Frank Doljack   DET 5 R 25   32 64 4 5 2 .932   1933 14 Frank Doljack 127 36 4 2 0 16 19 12 11 0 3 2 5 .283 .345 .346 .691 15   1.2 0.9 2.1 .038 .028 .066 1.50 1933 14 Frank Doljack
       
1934 3 3 Goose Goslin Vet 14   DET 1 L 33   145 282 15 15 2 .952   1934 3 3 Goose Goslin 598 182 37 7 13 103 97 63 37 2 5 5 4 .304 .373 .455 .828 108   18.4 3.1 21.5 .127 .021 .148 22.77 1934 3 3 Goose Goslin
       
Pos St All- Other Left Field Fielding Statistics Pos St Batting Statistics as Left Fielder Win Shares Pos St
Year Rank Rank Name HOF MVP Star Rookie GG SS Team Stdg Bats Age Pos Games PO Assts Err DP F Pct. Year Rank Rank Name At Bats Hits 2B 3B HR Runs RBI BB IBB SO HP SH SF SB CS GDP BA OBA SA OPS RC B WS F WS T WS BWS/G FWS/G TWS/G Adj WSQ Year Rank Rank Name
1935 5 5 Goose Goslin Vet   DET 1 L 34   128 286 5 11 2 .964   1935 5 5 Goose Goslin 517 151 30 5 8 77 96 49 27 2 3 4 4 .292 .356 .416 .772 81   12.2 2.3 14.5 .095 .018 .113 13.97 1935 5 5 Goose Goslin
1935 10 Gee Walker   DET 1 R 27 CF   29 59 1 4 0 .938   1935 10 Gee Walker 124 37 8 2 2 18 18 5 7 0 3 2 1 .298 .326 .444 .770 19   2.7 0.4 3.1 .093 .014 .107 2.90 1935 10 Gee Walker
       
1936 1 1 Goose Goslin Vet a   DET 2 L 35   144 266 11 13 1 .955   1936 1 1 Goose Goslin 572 180 33 8 24 122 125 85 50 0 3 14 4 .315 .403 .526 .929 121   20.6 2.0 22.6 .143 .014 .157 26.15 1936 1 1 Goose Goslin
       
1937 4 4 Gee Walker 22 A-INJ   DET 2 R 29 RF   88 177 5 9 1 .953   1937 4 4 Gee Walker 365 123 24 2 10 60 65 24 43 3 1 13 4 .337 .383 .496 .879 67   10.4 2.0 12.4 .118 .023 .141 13.68 1937 4 4 Gee Walker
1937 11 Goose Goslin Vet   DET 2 L 36   39 79 2 4 1 .953   1937 11 Goose Goslin 172 41 10 1 4 29 33 33 17 2 1 0 1 .238 .367 .378 .745 27   2.9 0.9 3.8 .074 .023 .097 3.48 1937 11 Goose Goslin
1937 14 Chet Laabs R   DET 2 R 25 CF   22 39 1 2 0 .952   1937 14 Chet Laabs 86 21 5 2 3 11 13 9 23 0 0 2 1 .244 .316 .453 .769 11   1.0 0.4 1.4 .045 .018 .064 1.04 1937 14 Chet Laabs
       
1938 4 4 Dixie Walker   DET 4 L 27 CF   94 164 6 4 1 .977   1938 4 4 Dixie Walker 356 110 21 5 5 66 34 51 25 1 5 3 3 .309 .397 .438 .835 66   9.6 1.5 11.1 .102 .016 .118 11.78 1938 4 4 Dixie Walker
1938 16 Chet Laabs   DET 4 R 26 CF   22 44 2 2 0 .958   1938 16 Chet Laabs 86 20 3 1 3 11 15 6 21 0 1 1 1 .233 .283 .395 .678 10   0.7 0.4 1.1 .032 .018 .050 0.76 1938 16 Chet Laabs
1938 15 Jo-Jo White   DET 4 L 29 CF   21 44 2 2 0 .958   1938 15 Jo-Jo White 77 20 2 0 0 15 6 11 6 0 1 1 2 .260 .352 .286 .638 10   0.7 0.4 1.1 .033 .019 .052 0.78 1938 15 Jo-Jo White
       
1939 7 6 Earl Averill Vet   DET 5 L 37   75 144 3 4 0 .974   1939 7 6 Earl Averill 290 76 19 6 9 54 54 40 28 1 10 4 2 4 .262 .353 .462 .815 51   6.4 1.8 8.2 .085 .024 .109 7.85 1939 7 6 Earl Averill
1939 17 Beau Bell   DET 5 R 31   37 73 4 0 1 1.000   1939 17 Beau Bell 134 32 4 2 0 14 24 24 16 1 8 0 1 6 .239 .358 .299 .657 15   0.6 1.0 1.6 .016 .027 .043 0.96 1939 17 Beau Bell
1939 12 Dixie Walker   DET 5 L 28 NL-CF   23 54 2 2 1 .966   1939 12 Dixie Walker 93 28 2 3 2 18 12 9 5 0 5 1 1 3 .301 .363 .452 .815 16   2.1 0.7 2.8 .091 .030 .122 2.83 1939 12 Dixie Walker
1939 15 Roy Cullenbine R   DET 5 B 25   24 40 1 4 0 .911   1939 15 Roy Cullenbine 88 21 4 1 3 15 11 17 14 0 0 0 0 1 .239 .362 .409 .771 14   1.6 0.3 1.9 .067 .013 .079 1.55 1939 15 Roy Cullenbine
       
1940 1 1 Hank Greenberg BBW 1 a   DET 1 R 29   148 298 14 15 1 .954   1940 1 1 Hank Greenberg 573 195 50 8 41 129 150 93 75 1 3 6 3 15 .340 .433 .670 1.103 152   27.1 3.7 30.8 .183 .025 .208 36.43 1940 1 1 Hank Greenberg
       
1941 6 7 Rip Radcliff   DET T4 L 35   85 151 6 5 1 .969   1941 6 7 Rip Radcliff 370 117 14 5 3 46 38 19 13 1 5 4 4 7 .316 .351 .405 .756 50   6.4 1.8 8.2 .075 .021 .096 6.79 1941 6 7 Rip Radcliff
1941 17 Tuck Stainback   DET T4 R 29 RF   39 50 1 3 0 .944   1941 17 Tuck Stainback 96 24 4 0 1 9 5 1 10 0 3 3 1 0 .250 .258 .323 .581 8   - 0.5 0.5 .000 .013 .013 0.15 1941 17 Tuck Stainback
1941 10 Barney McCosky T15   DET T4 L 24 CF   21 44 1 1 0 .978   1941 10 Barney McCosky 85 28 4 1 1 14 9 11 6 1 1 1 1 1 .329 .412 .435 .847 15   2.3 0.7 3.0 .110 .033 .143 3.03 1941 10 Barney McCosky
       
1942 7 7 Barney McCosky 29   DET 5 L 25   145 326 7 7 2 .979   1942 7 7 Barney McCosky 565 166 26 10 7 71 47 64 35 0 11 10 5 11 .294 .366 .412 .778 89   12.6 5.4 18.0 .087 .037 .124 14.98 1942 7 7 Barney McCosky
       
1943 3 3 Dick Wakefield 6 A-rep R   DET 5 L 22   140 284 10 13 1 .958   1943 3 3 Dick Wakefield 572 181 34 7 6 82 71 56 54 0 2 4 5 21 .316 .377 .432 .809 91   18.5 3.4 21.9 .132 .024 .156 22.50 1943 3 3 Dick Wakefield
       
1944 2 2 Dick Wakefield 5   DET 2 L 23   78 155 3 6 1 .963   1944 2 2 Dick Wakefield 276 98 15 5 12 53 53 55 29 1 0 2 2 3 .355 .464 .576 1.040 74   20.0 1.5 21.5 .256 .019 .276 31.14 1944 2 2 Dick Wakefield
1944 11 Jimmy Outlaw   DET 2 R 31 RF   71 130 7 5 1 .965   1944 11 Jimmy Outlaw 277 76 10 3 2 36 30 21 21 1 3 4 4 7 .274 .328 .354 .682 32   4.8 1.4 6.2 .068 .020 .087 5.06 1944 11 Jimmy Outlaw
       
1945 8 6 Jimmy Outlaw   DET 1 R 32 3B   82 140 10 5 4 .968   1945 8 6 Jimmy Outlaw 286 78 10 3 0 36 22 29 21 0 2 4 4 3 .273 .340 .329 .669 33   5.7 1.6 7.3 .070 .020 .089 6.01 1945 8 6 Jimmy Outlaw
1945 3 Hank Greenberg BBW 14 a*   DET 1 R 34   72 129 3 0 0 1.000   1945 3 Hank Greenberg 270 84 20 2 13 47 60 42 40 0 0 3 1 9 .311 .404 .544 .948 57   14.7 1.8 16.5 .204 .025 .229 21.81 1945 3 Hank Greenberg
       
1946 4 4 Dick Wakefield   DET 2 L 25   104 210 6 8 1 .964   1946 4 4 Dick Wakefield 396 106 11 5 12 64 59 59 55 1 2 3 5 5 .268 .364 .412 .776 63   12.4 2.2 14.6 .119 .021 .140 14.70 1946 4 4 Dick Wakefield
1946 13 Jimmy Outlaw   DET 2 R 33 3B   26 38 3 0 0 1.000   1946 13 Jimmy Outlaw 94 24 4 1 1 11 10 9 8 0 3 2 1 3 .255 .320 .351 .671 10   1.3 0.4 1.7 .050 .015 .065 1.17 1946 13 Jimmy Outlaw
       
1947 4 4 Dick Wakefield   DET 2 L 26   101 197 10 11 2 .950   1947 4 4 Dick Wakefield 368 104 15 5 8 59 51 80 44 1 4 1 4 8 .283 .412 .416 .828 66   14.1 1.6 15.7 .140 .016 .155 16.70 1947 4 4 Dick Wakefield
1947 9 Vic Wertz R   DET 2 L 22 RF   38 73 3 3 0 .962   1947 9 Vic Wertz 152 44 10 2 3 27 20 22 30 0 1 1 0 5 .289 .379 .441 .820 24   4.9 0.6 5.5 .129 .016 .145 5.65 1947 9 Vic Wertz
1947 19 Jimmy Outlaw   DET 2 R 34   21 32 0 1 0 .970   1947 19 Jimmy Outlaw 58 13 3 0 0 9 7 10 6 0 1 1 0 1 .224 .338 .276 .614 7   0.8 0.2 1.0 .038 .010 .048 0.59 1947 19 Jimmy Outlaw
       
1948 4 4 Dick Wakefield   DET 5 L 27   86 198 3 11 1 .948   1948 4 4 Dick Wakefield 322 89 20 5 11 50 53 70 55 0 1 0 1 6 .276 .406 .472 .878 63   12.9 1.3 14.2 .150 .015 .165 16.12 1948 4 4 Dick Wakefield
1948 9 Vic Wertz   DET 5 L 23 RF   64 124 7 6 2 .956   1948 9 Vic Wertz 248 61 12 6 4 31 42 30 44 2 4 0 0 3 .246 .332 .391 .723 34   5.0 1.0 6.0 .078 .016 .094 5.13 1948 9 Vic Wertz
       
Pos St All- Other Left Field Fielding Statistics Pos St Batting Statistics as Left Fielder Win Shares Pos St
Year Rank Rank Name HOF MVP Star Rookie GG SS Team Stdg Bats Age Pos Games PO Assts Err DP F Pct. Year Rank Rank Name At Bats Hits 2B 3B HR Runs RBI BB IBB SO HP SH SF SB CS GDP BA OBA SA OPS RC B WS F WS T WS BWS/G FWS/G TWS/G Adj WSQ Year Rank Rank Name
1949 4 4 Hoot Evers   DET 4 R 28 CF   81 186 8 1 1 .995   1949 4 4 Hoot Evers 280 85 14 4 5 44 47 45 25 1 3 4 5 10 .304 .402 .436 .838 49   8.2 2.8 11.0 .101 .035 .136 11.04 1949 4 4 Hoot Evers
1949 8 Pat Mullin   DET 4 L 31   61 117 3 2 0 .984   1949 8 Pat Mullin 231 62 6 4 9 41 44 31 22 1 3 1 1 4 .268 .357 .446 .803 39   6.3 1.4 7.7 .103 .023 .126 7.45 1949 8 Pat Mullin
1949 12 Dick Wakefield   DET 4 L 28   32 71 3 0 1 1.000   1949 12 Dick Wakefield 126 26 3 1 6 17 19 32 24 0 1 0 0 4 .206 .367 .389 .756 20   2.9 1.1 4.0 .091 .034 .125 3.85 1949 12 Dick Wakefield
       
1950 1 1 Hoot Evers 11 A   DET 2 R 29   139 316 15 1 3 .997   1950 1 1 Hoot Evers 515 166 34 11 21 98 101 70 39 4 9 5 9 17 .322 .407 .553 .960 108   20.9 4.1 25.0 .150 .029 .180 30.20 1950 1 1 Hoot Evers
1950 17 Pat Mullin   DET 2 L 32   21 38 2 0 1 1.000   1950 17 Pat Mullin 88 19 3 0 4 10 14 12 14 0 1 1 2 0 .216 .310 .386 .696 11   1.2 0.5 1.7 .057 .024 .081 1.38 1950 17 Pat Mullin
       
1951 6 6 Pat Mullin   DET 5 L 33   76 132 4 9 1 .938   1951 6 6 Pat Mullin 261 73 10 5 11 36 45 35 34 0 1 2 2 3 .280 .365 .483 .848 47   8.9 1.1 10.0 .117 .014 .132 9.95 1951 6 6 Pat Mullin
1951 13 Hoot Evers   DET 5 R 30 CF   66 122 6 4 1 .970   1951 13 Hoot Evers 232 52 9 1 6 28 27 24 28 1 4 3 2 9 .224 .300 .349 .649 23   1.6 1.3 2.9 .024 .020 .044 1.67 1951 13 Hoot Evers
1951 14 Steve Souchock   DET 5 R 32 RF   30 47 1 3 0 .941   1951 14 Steve Souchock 88 22 5 1 5 15 13 8 13 0 1 0 1 4 .250 .313 .500 .813 13   1.8 0.4 2.2 .060 .013 .073 1.63 1951 14 Steve Souchock
       
1952 11 7 Pat Mullin   DET 8 L 34   60 116 5 3 2 .976   1952 11 7 Pat Mullin 228 57 12 4 6 26 31 28 27 0 3 4 2 8 .250 .332 .417 .749 30   4.1 0.8 4.9 .068 .013 .082 4.16 1952 11 7 Pat Mullin
1952 8 Don Lenhardt   DET 8 R 29   43 89 5 1 1 .989   1952 8 Don Lenhardt 144 27 2 1 3 18 13 28 18 0 2 0 1 5 .188 .320 .278 .598 12   1.8 0.8 2.6 .042 .019 .060 1.80 1952 8 Don Lenhardt
1952 14 Jim Delsing   DET 8 L 26 CF   32 67 1 3 0 .958   1952 14 Jim Delsing 113 31 2 1 3 14 15 11 8 1 2 1 0 1 .274 .344 .389 .733 15   1.9 0.4 2.3 .059 .013 .072 1.83 1952 14 Jim Delsing
       
1953 7 6 Bob Nieman   DET 6 R 26 RF   74 145 5 3 0 .980   1953 7 6 Bob Nieman 272 77 17 3 8 39 37 31 31 0 2 0 2 7 .283 .356 .456 .812 42   8.1 0.5 8.6 .109 .007 .116 8.61 1953 7 6 Bob Nieman
1953 12 Steve Souchock   DET 6 R 34 RF   39 68 3 3 1 .959   1953 12 Steve Souchock 129 39 6 1 5 13 21 4 16 1 1 2 0 5 .302 .328 .481 .809 19   3.6 0.2 3.8 .092 .005 .097 3.48 1953 12 Steve Souchock
1953 17 Don Lund   DET 6 R 30 CF,RF   37 70 3 2 0 .973   1953 17 Don Lund 115 30 6 1 2 14 13 11 18 1 2 1 1 3 .261 .331 .383 .714 14   2.0 0.2 2.2 .054 .005 .059 1.58 1953 17 Don Lund
1953 15 Russ Sullivan R   DET 6 L 30   20 42 4 2 1 .958   1953 15 Russ Sullivan 72 18 5 1 1 7 6 13 5 2 1 0 0 4 .250 .379 .389 .768 11   2.0 0.2 2.2 .100 .010 .110 2.14 1953 15 Russ Sullivan
       
1954 9 7 Jim Delsing   DET 5 L 28   90 184 5 1 0 .995   1954 9 7 Jim Delsing 298 75 21 2 5 34 32 36 3 27 1 3 1 4 4 5 .252 .333 .386 .719 39   6.3 1.9 8.2 .070 .021 .091 7.03 1954 9 7 Jim Delsing
1954 10 Bob Nieman   DET 5 R 27   62 119 2 2 0 .984   1954 10 Bob Nieman 225 58 14 1 7 25 33 19 2 29 0 3 3 0 2 9 .258 .312 .422 .734 27   4.1 1.1 5.2 .066 .018 .084 4.28 1954 10 Bob Nieman
       
1955 9 7 Jim Delsing   DET 5 L 29   101 178 3 1 1 .995   1955 9 7 Jim Delsing 342 82 14 2 10 48 56 43 2 35 1 0 4 2 0 6 .240 .323 .380 .703 44   6.6 1.3 7.9 .065 .013 .078 6.57 1955 9 7 Jim Delsing
1955 20 Bubba Phillips R   DET 5 R 27   60 116 2 1 0 .992   1955 20 Bubba Phillips 133 29 2 0 2 7 14 11 1 17 2 1 3 0 2 2 .218 .282 .278 .560 11   0.7 0.8 1.5 .012 .013 .025 0.71 1955 20 Bubba Phillips
1955 15 Charlie Maxwell   DET 5 L 28   22 43 2 2 0 .957   1955 15 Charlie Maxwell 63 15 5 1 4 10 11 4 0 11 1 2 1 0 0 1 .238 .290 .540 .830 10   1.9 0.3 2.2 .086 .014 .100 2.07 1955 15 Charlie Maxwell
       
1956 4 4 Charlie Maxwell T23 a   DET 5 L 29   134 280 12 4 1 .986   1956 4 4 Charlie Maxwell 486 155 13 3 27 94 80 78 1 74 2 3 8 1 1 4 .319 .409 .525 .934 108   22.3 2.3 24.6 .166 .017 .184 29.46 1956 4 4 Charlie Maxwell
1956 19 Bob Kennedy   DET 5 R 35 3B   21 41 1 2 0 .955   1956 19 Bob Kennedy 55 15 2 0 1 8 7 10 1 2 0 2 0 0 0 5 .273 .385 .364 .749 7   0.4 0.2 0.6 .019 .010 .029 0.28 1956 19 Bob Kennedy
       
1957 5 5 Charlie Maxwell 18 a   DET 4 L 30   136 316 6 1 1 .997   1957 5 5 Charlie Maxwell 483 132 22 3 24 75 82 76 7 82 5 3 3 3 2 6 .273 .376 .480 .856 87   17.0 4.5 21.5 .125 .033 .158 22.45 1957 5 5 Charlie Maxwell
       
1958 7 7 Charlie Maxwell   DET 5 L 31   113 199 4 3 0 .985   1958 7 7 Charlie Maxwell 349 102 13 4 13 58 60 56 3 48 0 0 5 5 1 5 .292 .385 .464 .849 67   13.0 2.0 15.0 .115 .018 .133 15.10 1958 7 7 Charlie Maxwell
1958 14 Johnny Groth   DET 5 R 31   52 43 1 1 0 .978   1958 14 Johnny Groth 47 16 2 0 0 5 3 5 0 5 0 1 0 0 1 1 .340 .404 .383 .787 7   1.1 0.5 1.6 .021 .010 .031 0.78 1958 14 Johnny Groth
1958 11 Gus Zernial   DET 5 R 35   24 30 1 2 0 .939   1958 11 Gus Zernial 86 25 6 1 2 6 11 3 0 12 0 0 1 0 0 3 .291 .311 .453 .764 11   2.2 0.2 2.4 .092 .008 .100 2.10 1958 11 Gus Zernial
       
1959 2 2 Charlie Maxwell   DET 4 L 32   136 285 6 4 1 .986   1959 2 2 Charlie Maxwell 510 127 12 2 30 80 90 80 6 90 6 4 2 0 2 11 .249 .356 .457 .813 85   14.9 2.7 17.6 .110 .020 .129 18.83 1959 2 2 Charlie Maxwell
       
1960 7 7 Charlie Maxwell T28   DET 6 L 33   120 254 5 1 0 .996   1960 7 7 Charlie Maxwell 468 113 16 5 24 70 77 57 6 71 6 1 1 4 0 4 .241 .331 .451 .782 70   10.3 2.8 13.1 .086 .023 .109 12.10 1960 7 7 Charlie Maxwell
1960 12 Neil Chrisley   DET 6 L 28   31 67 2 1 0 .986   1960 12 Neil Chrisley 110 29 6 2 4 12 17 7 0 13 1 2 4 1 0 2 .264 .303 .464 .767 16   1.9 0.7 2.6 .061 .023 .084 2.10 1960 12 Neil Chrisley
       
1961 1 1 Rocky Colavito 8 A(2)   DET 2 R 27 RF   150 301 14 8 3 .975   1961 1 1 Rocky Colavito 514 151 28 2 41 116 128 100 2 64 2 2 7 0 2 12 .294 .406 .595 1.001 129   28.4 3.5 31.9 .189 .023 .213 47.73 1961 1 1 Rocky Colavito
1961 18 Charlie Maxwell   DET 2 L 34   22 45 1 2 0 .958   1961 18 Charlie Maxwell 72 16 3 2 2 7 9 10 1 11 0 0 1 0 0 0 .222 .313 .403 .716 10   1.6 0.5 2.1 .073 .023 .095 2.11 1961 18 Charlie Maxwell
       
1962 1 1 Rocky Colavito 16 a,A   DET 4 R 28   161 359 10 3 1 .992   1962 1 1 Rocky Colavito 601 164 30 2 37 90 112 96 7 68 2 1 7 2 0 18 .273 .371 .514 .885 113   21.3 4.3 25.6 .132 .027 .159 30.78 1962 1 1 Rocky Colavito
       
Pos St All- Other Left Field Fielding Statistics Pos St Batting Statistics as Left Fielder Win Shares Pos St
Year Rank Rank Name HOF MVP Star Rookie GG SS Team Stdg Bats Age Pos Games PO Assts Err DP F Pct. Year Rank Rank Name At Bats Hits 2B 3B HR Runs RBI BB IBB SO HP SH SF SB CS GDP BA OBA SA OPS RC B WS F WS T WS BWS/G FWS/G TWS/G Adj WSQ Year Rank Rank Name
1963 4 4 Rocky Colavito   DET T5 R 29 RF   141 281 9 2 0 .993   1963 4 4 Rocky Colavito 520 142 23 1 18 81 81 74 8 66 1 2 7 0 0 16 .273 .360 .425 .785 81   15.6 2.6 18.2 .111 .018 .129 19.72 1963 4 4 Rocky Colavito
       
1964 5 5 Gates Brown R   DET 4 L 25   106 205 4 4 0 .981   1964 5 5 Gates Brown 407 112 22 6 14 60 51 30 0 49 4 2 2 11 4 6 .275 .330 .462 .792 62   12.7 2.1 14.8 .120 .020 .140 16.60 1964 5 5 Gates Brown
1964 16 Don Demeter   DET 4 R 29 1B,CF   24 33 1 0 0 1.000   1964 16 Don Demeter 74 21 1 0 6 15 17 4 0 15 3 1 1 0 0 2 .284 .341 .541 .882 13   2.3 0.4 2.7 .096 .017 .113 2.72 1964 16 Don Demeter
1964 25 Willie Horton R   DET 4 R 21   20 29 0 2 0 .935   1964 25 Willie Horton 67 11 1 3 0 5 7 10 2 14 1 0 0 0 0 0 .164 .282 .269 .551 6   0.3 0.2 0.5 .015 .010 .025 0.24 1964 25 Willie Horton
       
1965 6 6 Willie Horton 8 A R   DET 4 R 22 RF   111 206 7 2 1 .991   1965 6 6 Willie Horton 392 112 16 2 25 54 87 36 8 80 4 2 1 4 6 11 .286 .351 .528 .879 68   13.6 2.2 15.8 .123 .020 .142 17.07 1965 6 6 Willie Horton
1965 12 Gates Brown   DET 4 L 26   49 100 1 3 0 .971   1965 12 Gates Brown 170 43 10 1 8 21 32 11 1 24 0 3 2 4 0 3 .253 .295 .465 .760 24   4.6 0.8 5.4 .094 .016 .110 5.13 1965 12 Gates Brown
       
1966 3 3 Willie Horton T21   DET 3 R 23 RF   129 203 4 5 1 .976   1966 3 3 Willie Horton 467 125 19 6 24 66 90 38 4 90 8 2 3 1 1 8 .268 .331 .488 .819 76   17.7 1.8 19.5 .137 .014 .151 23.40 1966 3 3 Willie Horton
1966 13 Gates Brown   DET 3 L 27   43 46 4 1 1 .980   1966 13 Gates Brown 129 32 4 1 5 18 18 12 1 14 2 0 3 3 0 2 .248 .315 .411 .726 18   4.2 0.5 4.7 .098 .012 .109 4.80 1966 13 Gates Brown
       
1967 4 4 Willie Horton   DET T2 R 24   109 165 5 5 2 .971   1967 4 4 Willie Horton 390 107 19 3 19 47 66 34 0 77 4 1 2 0 0 12 .274 .337 .485 .822 62   14.8 2.2 17.0 .136 .020 .156 20.06 1967 4 4 Willie Horton
1967 13 Lenny Green   DET T2 L 34   43 52 0 1 0 .981   1967 13 Lenny Green 133 39 8 1 0 18 10 8 0 12 0 0 0 1 1 1 .293 .333 .368 .701 16   3.1 0.6 3.7 .072 .014 .086 3.24 1967 13 Lenny Green
1967 19 Jim Northrup   DET T2 L 27 CF,RF   68 38 1 2 0 .951   1967 19 Jim Northrup 55 17 1 0 1 9 4 5 3 12 0 0 0 3 0 1 .309 .367 .382 .749 8   1.7 0.5 2.2 .025 .007 .032 1.18 1967 19 Jim Northrup
1967 23 Gates Brown   DET T2 L 28   20 22 1 0 0 1.000   1967 23 Gates Brown 66 13 1 1 2 14 7 8 0 10 0 0 0 0 0 3 .197 .284 .333 .617 6   0.4 0.4 0.8 .020 .020 .040 0.48 1967 23 Gates Brown
       
1968 2 2 Willie Horton 4 A   DET 1 R 25   139 212 6 6 2 .973   1968 2 2 Willie Horton 507 145 20 2 36 73 84 48 8 107 8 2 7 0 3 13 .286 .353 .546 .899 95   24.9 2.8 27.7 .179 .020 .199 35.40 1968 2 2 Willie Horton
1968 25 Wayne Comer R   DET 1 R 24   26 16 0 0 0 1.000   1968 25 Wayne Comer 26 4 0 1 0 3 2 0 0 3 0 1 0 0 0 2 .154 .154 .231 .385 0   - 0.3 0.3 .000 .012 .012 0.09 1968 25 Wayne Comer
       
1969 5 5 Willie Horton   DET 2E R 26   134 266 7 7 0 .975   1969 5 5 Willie Horton 490 130 16 1 28 66 91 49 9 90 3 1 4 3 3 8 .265 .333 .473 .806 77   15.0 3.2 18.2 .112 .024 .136 20.90 1969 5 5 Willie Horton
1969 12 Jim Northrup T35   DET 2E L 29 CF,RF   31 35 0 0 0 1.000   1969 12 Jim Northrup 58 22 4 1 3 7 10 6 0 10 0 0 0 0 1 1 .379 .438 .638 1.076 16   3.5 0.5 4.0 .113 .016 .129 4.48 1969 12 Jim Northrup
       
1970 6 5 Willie Horton a   DET 4E R 27   94 148 10 3 1 .981   1970 6 5 Willie Horton 356 107 15 2 17 53 68 28 6 42 2 0 3 0 1 7 .301 .352 .497 .849 61   13.7 1.3 15.0 .146 .014 .160 16.81 1970 6 5 Willie Horton
1970 17 Jim Northrup   DET 4E L 30 CF,RF   35 59 0 1 0 .983   1970 17 Jim Northrup 90 26 5 1 1 11 14 17 0 14 1 0 1 2 1 3 .289 .404 .400 .804 16   3.2 0.4 3.6 .091 .011 .103 3.24 1970 17 Jim Northrup
1970 25 Gates Brown   DET 4E L 31   26 37 1 2 0 .950   1970 25 Gates Brown 83 18 2 0 2 12 11 11 0 6 1 0 2 0 0 2 .217 .309 .313 .622 9   1.4 0.2 1.6 .054 .008 .062 1.11 1970 25 Gates Brown
1970 27 Elliott Maddox R   DET 4E R 22 3B   28 42 2 1 1 .978   1970 27 Elliott Maddox 67 18 2 0 0 4 4 5 0 13 0 0 0 0 1 2 .269 .319 .299 .618 6   0.9 0.3 1.2 .032 .011 .043 0.70 1970 27 Elliott Maddox
       
1971 4 4 Willie Horton   DET 2E R 28 RF   107 143 8 6 1 .962   1971 4 4 Willie Horton 363 105 18 1 18 52 59 31 4 65 7 0 3 0 5 12 .289 .354 .493 .847 59   13.4 1.2 14.6 .125 .011 .136 15.77 1971 4 4 Willie Horton
1971 6 Gates Brown   DET 2E L 32   56 68 2 1 0 .986   1971 6 Gates Brown 169 57 1 2 9 31 24 17 1 15 1 0 0 4 2 4 .337 .401 .527 .928 35   9.5 0.6 10.1 .170 .011 .180 12.54 1971 6 Gates Brown
1971 22 Jim Northrup   DET 2E L 31 1B,CF,RF   42 27 0 1 0 .964   1971 22 Jim Northrup 41 11 2 0 2 6 5 2 0 4 0 0 0 0 0 3 .268 .302 .463 .765 5   1.1 0.2 1.3 .026 .005 .031 0.67 1971 22 Jim Northrup
       
1972 9 9 Gates Brown   DET 1E L 33   72 122 5 3 1 .977   1972 9 9 Gates Brown 224 54 5 0 9 32 28 22 2 23 2 0 3 3 0 7 .241 .311 .384 .695 27   5.1 1.4 6.5 .071 .019 .090 5.89 1972 9 9 Gates Brown
1972 10 Willie Horton a   DET 1E R 29 RF   80 91 4 0 0 1.000   1972 10 Willie Horton 229 55 7 4 9 28 30 18 2 28 2 2 2 0 0 6 .240 .299 .424 .723 28   5.2 1.2 6.4 .065 .015 .080 5.46 1972 10 Willie Horton
1972 25 Jim Northrup   DET 1E L 32 CF,RF   50 36 2 0 1 1.000   1972 25 Jim Northrup 58 15 2 1 1 4 4 3 0 5 0 2 0 1 3 1 .259 .295 .379 .674 5   0.9 0.4 1.3 .018 .008 .026 0.63 1972 25 Jim Northrup
1972 22 Ike Brown   DET 1E R 30   20 40 1 0 0 1.000   1972 22 Ike Brown 34 8 1 0 1 4 3 8 1 10 0 0 0 0 1 2 .235 .381 .353 .734 4   0.8 0.4 1.2 .040 .020 .060 0.89 1972 22 Ike Brown
       
1973 3 3 Willie Horton T29 a   DET 3E R 30   107 160 2 10 0 .942   1973 3 3 Willie Horton 400 128 19 3 17 45 52 22 5 55 7 1 1 1 4 14 .320 .365 .510 .875 64   14.2 1.2 15.4 .133 .011 .144 18.48 1973 3 3 Willie Horton
1973 18 Jim Northrup   DET 3E L 33 RF   56 56 0 0 0 1.000   1973 18 Jim Northrup 84 25 1 1 4 12 6 14 2 11 0 1 1 2 1 3 .298 .394 .476 .870 16   3.6 0.5 4.1 .064 .009 .073 3.51 1973 18 Jim Northrup
1973 T27 Rich Reese   DET 3E L 31 1B   21 28 0 1 0 .966   1973 T27 Rich Reese 62 8 1 0 1 4 2 3 0 11 0 1 0 0 0 2 .129 .169 .194 .363 2   0.7 0.2 0.9 .033 .010 .043 0.59 1973 T27 Rich Reese
1973 31 Dick Sharon R   DET 3E R 23 RF   20 13 0 1 0 .929   1973 31 Dick Sharon 22 4 0 0 1 2 2 1 0 4 0 1 0 0 0 1 .182 .217 .318 .535 1   0.1 0.1 0.2 .005 .005 .010 0.06 1973 31 Dick Sharon
       
1974 6 4 Willie Horton   DET 6E R 31   64 106 2 6 0 .947   1974 6 4 Willie Horton 229 68 8 1 15 33 43 19 2 35 3 0 1 0 1 6 .297 .357 .537 .894 42   10.8 0.9 11.7 .169 .014 .183 15.51 1974 6 4 Willie Horton
1974 15 Ben Oglivie   DET 6E L 25   61 84 3 5 0 .946   1974 15 Ben Oglivie 179 48 8 2 4 18 20 28 4 29 0 0 1 4 3 3 .268 .365 .402 .767 27   5.9 0.8 6.7 .097 .013 .110 6.89 1974 15 Ben Oglivie
1974 21 Marvin Lane R   DET 6E R 24   40 62 2 1 0 .985   1974 21 Marvin Lane 84 19 4 1 1 9 6 15 1 23 0 1 0 2 0 2 .226 .343 .333 .676 11   2.4 0.7 3.1 .060 .018 .078 2.68 1974 21 Marvin Lane
1974 29 Dick Sharon   DET 6E R 24   23 20 1 0 0 1.000   1974 29 Dick Sharon 23 4 0 0 0 3 6 5 0 6 0 0 0 0 2 0 .174 .321 .174 .495 1   0.1 0.2 0.3 .004 .009 .013 0.11 1974 29 Dick Sharon
       
Pos St All- Other Left Field Fielding Statistics Pos St Batting Statistics as Left Fielder Win Shares Pos St
Year Rank Rank Name HOF MVP Star Rookie GG SS Team Stdg Bats Age Pos Games PO Assts Err DP F Pct. Year Rank Rank Name At Bats Hits 2B 3B HR Runs RBI BB IBB SO HP SH SF SB CS GDP BA OBA SA OPS RC B WS F WS T WS BWS/G FWS/G TWS/G Adj WSQ Year Rank Rank Name
1975 16 11 Ben Oglivie   DET 6E L 26   76 168 3 4 1 .977   1975 16 11 Ben Oglivie 276 84 14 1 7 37 29 15 0 49 0 3 4 9 7 10 .304 .336 .438 .774 37   5.6 1.0 6.6 .074 .013 .087 5.86 1975 16 11 Ben Oglivie
1975 25 Dan Meyer R   DET 6E L 22 1B   74 130 4 7 0 .950   1975 25 Dan Meyer 284 74 10 3 4 38 28 19 1 13 0 0 1 4 0 7 .261 .306 .359 .665 31   1.8 0.9 2.7 .024 .012 .036 1.56 1975 25 Dan Meyer
       
1976 18 10 Alex Johnson   DET 5E R 33   89 159 7 8 1 .954   1976 18 10 Alex Johnson 346 93 12 2 5 36 37 17 1 43 2 1 5 11 6 12 .269 .303 .358 .661 35   4.3 1.5 5.8 .048 .017 .065 4.57 1976 18 10 Alex Johnson
1976 23 Dan Meyer   DET 5E L 23   47 76 4 1 1 .988   1976 23 Dan Meyer 183 44 4 4 1 18 10 10 0 12 0 2 1 8 0 8 .240 .278 .322 .600 16   1.8 0.9 2.7 .038 .019 .057 2.00 1976 23 Dan Meyer
       
1977 7 6 Steve Kemp R   DET 4E L 22   148 252 10 5 1 .981   1977 7 6 Steve Kemp 549 142 29 4 18 75 88 71 0 92 5 1 7 3 3 11 .259 .345 .424 .769 82   11.9 2.5 14.4 .080 .017 .097 14.13 1977 7 6 Steve Kemp
       
1978 3 3 Steve Kemp   DET 5E L 23   157 325 11 8 2 .977   1978 3 3 Steve Kemp 580 160 18 4 15 75 79 96 3 86 1 3 3 2 3 9 .276 .378 .398 .776 89   16.8 2.8 19.6 .107 .018 .125 21.79 1978 3 3 Steve Kemp
       
1979 2 2 Steve Kemp T17 a   DET 5E L 24   117 224 12 6 2 .975   1979 2 2 Steve Kemp 436 138 25 3 22 74 90 58 2 60 2 2 5 2 6 12 .317 .395 .539 .934 91   19.9 2.1 22.0 .170 .018 .188 29.44 1979 2 2 Steve Kemp
       
1980 8 8 Steve Kemp DET 5E L 25 DH   85 197 4 1 3 .995   1980 8 8 Steve Kemp 335 92 17 2 13 57 74 43 1 35 1 0 8 1 0 14 .275 .351 .454 .805 53   9.8 1.9 11.7 .115 .022 .138 12.80 1980 8 8 Steve Kemp
1980 25 Jim Lentine R DET 5E R 25   40 77 4 2 0 .976   1980 25 Jim Lentine 104 24 5 1 0 10 10 12 1 18 1 3 0 2 0 3 .231 .316 .298 .614 10   1.6 0.7 2.3 .040 .018 .058 1.63 1980 25 Jim Lentine
1980 23 John Wockenfuss DET 5E R 31 C,1B,DH   21 32 2 0 1 1.000   1980 23 John Wockenfuss 52 9 1 0 4 7 7 12 0 8 2 0 0 0 0 1 .173 .348 .423 .771 9   1.7 0.6 2.3 .081 .029 .110 2.24 1980 23 John Wockenfuss
1980 28 Champ Summers DET 5E L 34 RF,DH   21 33 1 1 0 .971   1980 28 Champ Summers 56 12 2 1 3 8 11 7 0 7 0 0 0 0 0 2 .214 .302 .446 .748 7   1.4 0.2 1.6 .067 .010 .076 1.30 1980 28 Champ Summers
     
1981 2 2 Steve Kemp T23 DET 4E L 26   92 207 4 3 0 .986   1981 2 2 Steve Kemp 335 89 16 4 8 45 44 61 4 42 1 0 4 8 3 13 .266 .377 .409 .786 53   12.7 2.9 15.6 .138 .032 .170 18.94 1981 2 2 Steve Kemp
     
1982 10 10 Larry Herndon DET 4E R 28   155 328 11 6 3 .983   1982 10 10 Larry Herndon 608 178 21 12 23 91 86 37 3 91 1 2 3 12 9 19 .293 .333 .480 .813 88   14.6 3.9 18.5 .094 .025 .119 18.77 1982 10 10 Larry Herndon
     
1983 3 3 Larry Herndon DET 2E R 29   133 282 6 15 1 .950   1983 3 3 Larry Herndon 521 163 26 9 17 74 80 37 5 80 3 0 6 8 2 19 .313 .358 .495 .853 88   17.5 2.6 20.1 .132 .020 .151 23.14 1983 3 3 Larry Herndon
1983 19 Kirk Gibson DET 2E L 26 CF,DH   29 59 2 0 0 1.000   1983 19 Kirk Gibson 102 19 5 3 5 15 16 9 0 23 0 1 1 4 0 0 .186 .250 .441 .691 13   2.3 0.6 2.9 .079 .021 .100 2.72 1983 19 Kirk Gibson
     
1984 7 7 Larry Herndon DET 1E R 30   117 199 7 3 0 .986   1984 7 7 Larry Herndon 377 107 16 5 6 49 37 30 1 55 2 0 3 6 2 8 .284 .337 .401 .738 51   9.4 1.9 11.3 .080 .016 .097 11.33 1984 7 7 Larry Herndon
1984 17 Ruppert Jones DET 1E L 29 CF   61 98 4 0 1 1.000   1984 17 Ruppert Jones 125 32 6 1 6 13 17 12 0 30 0 0 0 2 2 1 .256 .321 .464 .785 19   4.1 1.0 5.1 .067 .016 .084 4.76 1984 17 Ruppert Jones
1984 26 John Grubb DET 1E L 35 DH   27 36 0 0 0 1.000   1984 26 John Grubb 63 16 1 0 1 7 2 14 0 9 0 0 0 1 0 0 .254 .390 .317 .707 9   2.2 0.3 2.5 .081 .011 .093 2.46 1984 26 John Grubb
     
1985 14 13 Larry Herndon DET 3E R 31   136 273 7 7 4 .976   1985 14 13 Larry Herndon 437 105 12 7 12 44 33 31 1 78 1 1 1 1 1 9 .240 .291 .382 .673 48   5.0 2.8 7.8 .037 .021 .057 6.19 1985 14 13 Larry Herndon
1985 27 Nelson Simmons R DET 3E B 22 DH   25 41 2 3 0 .935   1985 27 Nelson Simmons 83 20 4 0 3 12 13 11 3 10 0 0 1 1 0 1 .241 .326 .398 .724 11   1.4 0.4 1.8 .056 .016 .072 1.60 1985 27 Nelson Simmons
     
1986 16 12 Dave Collins DET 3E B 33 DH   76 166 2 1 1 .994   1986 16 12 Dave Collins 259 67 9 1 0 26 10 32 0 30 2 6 1 18 10 5 .259 .344 .301 .645 29   3.8 1.9 5.7 .050 .025 .075 4.96 1986 16 12 Dave Collins
1986 13 Larry Herndon DET 3E R 32   83 156 2 2 0 .988   1986 13 Larry Herndon 251 62 12 1 5 27 24 21 2 35 1 0 5 2 1 3 .247 .302 .363 .665 29   4.4 1.7 6.1 .053 .020 .073 5.26 1986 13 Larry Herndon
     
1987 2 2 Kirk Gibson DET 1E L 30   119 247 6 7 0 .973   1987 2 2 Kirk Gibson 462 134 25 3 24 90 78 66 8 105 4 1 4 25 7 5 .290 .381 .513 .894 92   18.0 2.2 20.2 .151 .018 .170 26.32 1987 2 2 Kirk Gibson
1987 23 Larry Herndon DET 1E R 33 RF,DH   32 41 4 1 1 .978   1987 23 Larry Herndon 74 21 4 1 2 11 12 5 0 13 0 0 3 1 0 1 .284 .317 .446 .763 11   2.1 0.5 2.6 .066 .016 .081 2.34 1987 23 Larry Herndon
1987 35 John Grubb DET 1E L 38   21 32 1 0 0 1.000   1987 35 John Grubb 42 7 2 0 0 1 4 6 0 4 0 0 1 0 0 3 .167 .265 .214 .479 2   0.1 0.3 0.4 .005 .014 .019 0.17 1987 35 John Grubb
     
1988 8 7 Pat Sheridan DET 2E L 30   92 183 1 3 0 .984   1988 8 7 Pat Sheridan 277 76 8 5 6 39 34 31 4 46 2 5 2 6 5 2 .274 .349 .404 .753 41   8.3 1.7 10.0 .090 .018 .109 10.37 1988 8 7 Pat Sheridan
1988 17 Luis Salazar DET 2E R 32 3B,SS   60 115 2 1 1 .992   1988 17 Luis Salazar 178 55 7 1 5 27 27 6 1 28 1 6 2 3 0 6 .309 .332 .444 .776 25   4.6 1.0 5.6 .077 .017 .093 5.38 1988 17 Luis Salazar
     
1989 17 13 Fred Lynn DET 7E L 37 DH   68 119 5 1 0 .992   1989 17 13 Fred Lynn 211 47 3 1 7 28 26 28 1 47 1 0 3 1 1 3 .223 .313 .346 .659 24   4.2 0.6 4.8 .062 .009 .071 3.95 1989 17 13 Fred Lynn
1989 19 Tracy Jones DET 7E R 28 NL-RF   34 65 0 1 0 .985   1989 19 Tracy Jones 123 32 8 0 2 14 16 14 1 14 1 1 1 1 1 1 .260 .338 .374 .712 16   3.0 0.4 3.4 .088 .012 .100 3.33 1989 19 Tracy Jones
1989 31 Gary Ward DET 7E R 35 1B,RF,DH   35 64 1 0 1 1.000   1989 31 Gary Ward 88 23 3 0 2 5 6 4 0 21 0 1 1 0 0 1 .261 .290 .364 .654 9   0.7 0.3 1.0 .020 .009 .029 0.52 1989 31 Gary Ward
1989 33 Kenny Williams DET 7E R 25 CF,RF   28 37 5 1 0 .977   1989 33 Kenny Williams 65 15 0 1 1 10 6 8 0 15 3 1 0 1 2 2 .231 .342 .308 .650 7   0.4 0.3 0.7 .014 .011 .025 0.34 1989 33 Kenny Williams
     
Pos St All- Other Left Field Fielding Statistics Pos St Batting Statistics as Left Fielder Win Shares Pos St
Year Rank Rank Name HOF MVP Star Rookie GG SS Team Stdg Bats Age Pos Games PO Assts Err DP F Pct. Year Rank Rank Name At Bats Hits 2B 3B HR Runs RBI BB IBB SO HP SH SF SB CS GDP BA OBA SA OPS RC B WS F WS T WS BWS/G FWS/G TWS/G Adj WSQ Year Rank Rank Name
1990 16 11 Gary Ward DET 3E R 36   75 139 1 2 1 .986   1990 16 11 Gary Ward 228 54 8 2 7 25 32 19 0 38 0 2 1 2 0 10 .237 .294 .382 .676 24   3.8 1.4 5.2 .051 .019 .069 4.44 1990 16 11 Gary Ward
1990 25 Larry Sheets DET 3E L 30 RF,DH   56 72 5 1 1 .987   1990 25 Larry Sheets 157 41 6 1 5 19 20 10 0 23 1 0 1 0 1 3 .261 .308 .408 .716 19   2.7 0.9 3.6 .048 .016 .064 2.96 1990 25 Larry Sheets
1990 29 Tracy Jones DET 3E R 29 DH   27 36 3 2 0 .951   1990 29 Tracy Jones 67 18 3 1 1 8 6 2 0 7 1 0 0 0 1 1 .269 .300 .388 .688 8   0.9 0.3 1.2 .033 .011 .044 0.79 1990 29 Tracy Jones
1990 43 John Shelby DET 3E B 32 CF   24 27 2 1 1 .967   1990 43 John Shelby 46 8 1 1 1 5 2 2 0 9 0 3 0 0 0 5 .174 .208 .304 .512 2   0.1 0.3 0.4 .004 .013 .017 0.17 1990 43 John Shelby
     
1991 14 11 Lloyd Moseby DET T2E L 31   64 126 1 6 0 .955   1991 14 11 Lloyd Moseby 233 59 12 1 6 32 32 20 2 38 3 1 3 7 1 3 .253 .317 .391 .708 31   5.5 0.6 6.1 .086 .009 .095 6.21 1991 14 11 Lloyd Moseby
1991 34 Pete Incaviglia DET T2E R 27 DH   50 90 4 2 2 .979   1991 34 Pete Incaviglia 175 34 7 0 5 18 23 17 0 53 0 0 2 0 3 3 .194 .263 .320 .583 14   0.8 0.6 1.4 .016 .012 .028 0.77 1991 34 Pete Incaviglia
1991 18 Tony Phillips DET T2E B 32 2B,3B,RF   25 53 0 0 0 1.000   1991 18 Tony Phillips 86 25 5 0 4 15 14 7 1 16 0 0 1 2 0 0 .291 .340 .488 .828 15   2.9 0.5 3.4 .116 .020 .136 4.13 1991 18 Tony Phillips
1991 T37 John Shelby DET T2E B 33 CF   26 42 4 1 0 .979   1991 T37 John Shelby 68 7 2 0 1 5 3 3 1 11 0 1 0 0 1 1 .103 .141 .176 .317 1   - 0.4 0.4 .000 .015 .015 0.16 1991 T37 John Shelby
     
1992 13 12 Dan Gladden DET 6E R 34   95 203 9 3 2 .986   1992 13 12 Dan Gladden 341 88 14 1 7 49 35 26 0 53 1 5 4 2 2 7 .258 .309 .367 .676 39   5.3 1.2 6.5 .056 .013 .068 5.13 1992 13 12 Dan Gladden
1992 24 Mark Carreon DET 6E R 28   64 137 5 2 2 .986   1992 24 Mark Carreon 223 58 8 1 8 26 31 15 1 34 1 1 3 3 1 10 .260 .306 .413 .719 26   1.7 0.7 2.4 .027 .011 .038 1.40 1992 24 Mark Carreon
     
1993 15 13 Dan Gladden DET T3E R 35   69 149 8 3 1 .981   1993 15 13 Dan Gladden 278 76 13 2 11 44 51 14 0 39 2 4 2 5 4 9 .273 .311 .453 .764 36   4.9 1.3 6.2 .071 .019 .090 5.66 1993 15 13 Dan Gladden
1993 8 Tony Phillips T16 DET T3E B 34 2B,LF   70 130 3 2 0 .985   1993 8 Tony Phillips 234 65 10 0 4 48 22 52 2 45 2 0 2 6 2 3 .278 .410 .372 .782 41   8.2 1.2 9.4 .117 .017 .134 10.48 1993 8 Tony Phillips
     
1994 2 2 Tony Phillips DET 5E B 35   104 236 6 5 1 .980   1994 2 2 Tony Phillips 382 107 16 3 16 78 54 83 2 96 2 0 3 11 4 7 .280 .409 .463 .872 79   12.8 2.0 14.8 .123 .019 .142 17.23 1994 2 2 Tony Phillips
     
1995 16 13 Bobby Higginson R DET 4E L 24 RF   66 148 7 2 1 .987   1995 16 13 Bobby Higginson 193 42 8 1 8 26 27 35 0 56 2 1 6 3 3 2 .218 .335 .394 .729 28   3.4 0.8 4.2 .052 .012 .064 3.46 1995 16 13 Bobby Higginson
1995 37 Milt Cuyler DET 4E B 26   34 46 2 3 0 .941   1995 37 Milt Cuyler 81 17 1 4 0 10 5 7 0 15 0 2 0 2 1 0 .210 .273 .321 .594 8   - 0.2 0.2 .000 .006 .006 0.05 1995 37 Milt Cuyler
1995 25 Phil Nevin R DET 4E R 24   27 50 2 2 0 .963   1995 25 Phil Nevin 90 21 3 1 2 12 12 10 0 25 3 0 0 0 0 3 .233 .330 .356 .686 11   1.5 0.3 1.8 .056 .011 .067 1.52 1995 25 Phil Nevin
1995 T33 Franklin Stubbs DET 4E L 34 1B   20 21 0 1 0 .955   1995 T33 Franklin Stubbs 37 8 3 0 1 4 3 7 0 10 0 0 0 0 0 1 .216 .341 .378 .719 5   0.9 0.1 1.0 .045 .005 .050 0.73 1995 T33 Franklin Stubbs
     
1996 5 5 Bobby Higginson DET 5E L 25 RF   63 94 4 3 1 .970   1996 5 5 Bobby Higginson 204 73 13 0 15 42 41 30 4 29 0 0 6 4 1 6 .358 .429 .642 1.071 57   10.9 0.4 11.3 .173 .006 .179 15.69 1996 5 5 Bobby Higginson
1996 12 Curtis Pride R DET 5E L 27 DH   45 81 0 3 0 .964   1996 12 Curtis Pride 137 42 11 3 5 29 15 12 0 32 0 1 0 6 2 0 .307 .362 .540 .902 28   4.7 0.3 5.0 .104 .007 .111 5.47 1996 12 Curtis Pride
1996 33 Chad Curtis DET 5E R 27 CF/NL-CF   48 61 3 2 0 .970   1996 33 Chad Curtis 115 23 6 0 2 17 9 14 0 19 1 2 0 5 4 4 .200 .292 .304 .596 10   1.0 0.4 1.4 .021 .008 .029 0.78 1996 33 Chad Curtis
1996 22 Melvin Nieves DET 5E B 24 RF   21 47 2 4 0 .925   1996 22 Melvin Nieves 81 24 8 1 4 17 13 8 0 27 1 0 1 0 1 3 .296 .363 .568 .931 16   2.1 0.2 2.3 .100 .010 .110 2.50 1996 22 Melvin Nieves
     
1997 5 4 Bobby Higginson DET 3E L 26 RF   105 195 17 6 6 .972   1997 5 4 Bobby Higginson 351 96 19 2 18 60 67 43 1 57 1 0 2 4 5 4 .274 .353 .493 .846 62   11.7 2.6 14.3 .111 .025 .136 17.03 1997 5 4 Bobby Higginson
1997 25 Phil Nevin DET 3E R 26 DH   40 66 4 1 2 .986   1997 25 Phil Nevin 127 29 6 0 4 16 16 12 0 31 1 0 0 0 1 4 .228 .300 .370 .670 13   1.7 0.6 2.3 .043 .015 .058 1.78 1997 25 Phil Nevin
1997 33 Curtis Pride DET 3E L 28 DH   34 44 0 1 0 .978   1997 33 Curtis Pride 79 15 1 3 2 10 12 11 1 25 1 2 0 5 2 2 .190 .297 .354 .651 9   0.8 0.5 1.3 .024 .015 .038 0.82 1997 33 Curtis Pride
     
1998 9 9 Luis Gonzalez DET 5C L 30   132 233 8 3 0 .988   1998 9 9 Luis Gonzalez 473 128 30 5 20 74 63 53 6 52 8 0 7 8 6 7 .271 .349 .482 .831 81   9.7 1.7 11.4 .073 .013 .086 10.44 1998 9 9 Luis Gonzalez
     
1999 14 12 Juan Encarnacion DET 3C R 23 CF   118 216 10 7 2 .970   1999 14 12 Juan Encarnacion 429 105 26 5 14 49 58 11 1 100 6 4 2 29 10 12 .245 .272 .427 .699 45   4.6 1.4 6.0 .039 .012 .051 4.56 1999 14 12 Juan Encarnacion
1999 11 Luis Polonia DET 3C L 34 DH   31 52 3 1 0 .982   1999 11 Luis Polonia 120 44 6 4 4 16 11 4 0 7 1 0 0 5 4 0 .367 .392 .583 .975 27   4.2 0.4 4.6 .135 .013 .148 5.97 1999 11 Luis Polonia
1999 24 Karim Garcia DET 3C L 23 RF   35 54 3 0 0 1.000   1999 24 Karim Garcia 97 22 4 0 4 14 10 6 1 25 0 0 0 1 1 0 .227 .272 .392 .664 10   0.7 0.5 1.2 .020 .014 .034 0.75 1999 24 Karim Garcia
     
2000 1 1 Bobby Higginson DET 3C L 29   145 305 19 7 3 .979   2000 1 1 Bobby Higginson 563 165 41 4 28 94 92 65 5 93 2 2 3 14 3 5 .293 .367 .529 .896 114   21.9 2.8 24.7 .151 .019 .170 31.76 2000 1 1 Bobby Higginson
     
2001 1 1 Bobby Higginson DET 4C L 30   142 321 10 8 1 .976   2001 1 1 Bobby Higginson 524 147 27 5 17 83 68 79 3 62 2 1 7 19 11 8 .281 .373 .448 .821 89   15.4 2.6 18.0 .108 .018 .127 21.48 2001 1 1 Bobby Higginson
2001 33 Wendell Magee DET 4C R 28 CF   21 29 1 0 0 1.000   2001 33 Wendell Magee 39 10 2 1 3 7 6 7 0 6 0 0 0 1 0 1 .256 .370 .590 .960 9   0.2 0.3 0.5 .010 .014 .024 0.26 2001 33 Wendell Magee
     
2002 6 6 Bobby Higginson DET 5C L 31   117 241 15 7 3 .973   2002 6 6 Bobby Higginson 440 125 24 3 10 51 62 40 3 45 6 1 7 12 5 8 .284 .347 .420 .767 63   13.2 1.5 14.7 .113 .013 .126 17.27 2002 6 6 Bobby Higginson
2002 32 George Lombard R DET 5C L 26 CF   29 46 2 1 0 .980   2002 32 George Lombard 90 21 5 2 2 11 7 3 0 25 1 2 0 5 1 0 .233 .266 .400 .666 10   1.0 0.3 1.3 .034 .010 .045 0.91 2002 32 George Lombard
     
Pos St All- Other Left Field Fielding Statistics Pos St Batting Statistics as Left Fielder Win Shares Pos St
Year Rank Rank Name HOF MVP Star Rookie GG SS Team Stdg Bats Age Pos Games PO Assts Err DP F Pct. Year Rank Rank Name At Bats Hits 2B 3B HR Runs RBI BB IBB SO HP SH SF SB CS GDP BA OBA SA OPS RC B WS F WS T WS BWS/G FWS/G TWS/G Adj WSQ Year Rank Rank Name
2003 18 12 Craig Monroe R DET 5C R 26 RF   75 148 6 4 1 .975   2003 18 12 Craig Monroe 263 62 10 0 16 32 44 15 0 53 1 0 3 4 1 9 .236 .277 .456 .733 31   4.9 0.7 5.6 .065 .009 .075 4.55 2003 18 12 Craig Monroe
2003 15 Dmitri Young a DET 5C B 29 DH   61 125 5 2 2 .985   2003 15 Dmitri Young 219 58 16 2 15 34 36 23 10 49 4 0 2 0 0 4 .265 .343 .562 .905 42   6.8 0.7 7.5 .111 .011 .123 7.82 2003 15 Dmitri Young
     
2004 13 12 Rondell White DET 4C R 32 DH   74 127 2 3 0 .977   2004 13 12 Rondell White 281 79 14 0 11 46 43 25 3 47 6 0 3 1 2 10 .281 .349 .448 .797 42   6.4 0.8 7.2 .086 .011 .097 6.80 2004 13 12 Rondell White
2004 18 Craig Monroe DET 4C R 27 CF,RF   65 102 1 8 0 .928   2004 18 Craig Monroe 187 58 10 2 7 27 29 12 0 37 0 0 0 0 2 1 .310 .352 .497 .849 32   4.3 0.4 4.7 .066 .006 .072 3.83 2004 18 Craig Monroe
2004 14 Marcus Thames R DET 4C R 27   40 78 3 0 1 1.000   2004 14 Marcus Thames 117 31 12 0 8 17 26 11 0 28 1 0 1 0 0 0 .265 .331 .573 .904 23   4.5 0.7 5.2 .113 .018 .130 5.68 2004 14 Marcus Thames
     
2005 10 10 Rondell White DET 4C R 33 DH   65 119 0 0 0 1.000   2005 10 10 Rondell White 252 84 14 3 10 39 42 12 0 31 4 0 3 1 0 6 .333 .369 .532 .901 49   8.1 0.4 8.5 .125 .006 .131 9.53 2005 10 10 Rondell White
2005 19 Craig Monroe DET 4C R 28 CF,RF   69 99 6 1 4 .991   2005 19 Craig Monroe 207 59 11 0 10 26 33 11 4 38 1 1 1 2 0 5 .285 .323 .483 .806 31   4.1 0.4 4.5 .059 .006 .065 3.56 2005 19 Craig Monroe
2005 24 Marcus Thames DET 4C R 28   21 31 0 0 0 1.000   2005 24 Marcus Thames 62 15 2 0 5 6 13 4 0 20 0 0 0 0 0 0 .242 .288 .516 .804 10   0.8 0.1 0.9 .038 .005 .043 0.58 2005 24 Marcus Thames
2005 T29 Curtis Granderson R DET 4C L 24 CF   20 10 0 0 0 1.000   2005 T29 Curtis Granderson 19 4 1 0 0 1 0 2 0 7 0 0 0 0 1 1 .211 .286 .263 .549 1   0.2 - 0.2 .010 .000 .010 0.06 2005 T29 Curtis Granderson
     
2006 10 8 Craig Monroe DET 2C R 29 DH   113 168 12 3 2 .984   2006 10 8 Craig Monroe 401 101 23 2 20 68 65 31 2 93 1 0 5 2 2 11 .252 .304 .469 .773 55   7.4 1.6 9.0 .065 .014 .080 8.03 2006 10 8 Craig Monroe
2006 17 Marcus Thames DET 2C R 29 DH   54 70 1 2 0 .973   2006 17 Marcus Thames 177 40 10 1 12 25 29 16 0 42 2 0 0 1 1 0 .226 .297 .497 .794 27   4.5 0.5 5.0 .083 .009 .093 4.81 2006 17 Marcus Thames
2006 29 Alexis Gomez R DET 2C L 29 RF   32 25 1 0 0 1.000   2006 29 Alexis Gomez 35 10 2 0 1 2 3 1 0 7 0 0 0 1 0 0 .286 .306 .429 .735 5   0.8 0.3 1.1 .025 .009 .034 0.64 2006 29 Alexis Gomez
     
2007 25 13 Craig Monroe DET 2C R 30   97 162 6 3 1 .982   2007 25 13 Craig Monroe 339 76 19 0 11 47 55 18 0 92 2 1 6 0 3 10 .224 .263 .378 .641 31   1.6 1.4 3.0 .016 .014 .031 1.78 2007 25 13 Craig Monroe
2007 22 Marcus Thames DET 2C R 30 1B   37 67 1 2 1 .971   2007 22 Marcus Thames 127 30 8 0 7 20 28 6 1 33 1 0 1 1 0 4 .236 .274 .465 .739 15   2.6 0.5 3.1 .070 .014 .084 3.02 2007 22 Marcus Thames
2007 29 Timo Perez DET 2C L 32   21 41 2 2 0 .956   2007 29 Timo Perez 69 22 6 1 0 6 10 3 0 4 0 0 0 0 1 5 .319 .347 .435 .782 8   1.3 0.3 1.6 .062 .014 .076 1.49 2007 29 Timo Perez
     
2008 14 12 Marcus Thames DET 5C R 31   73 120 3 5 1 .961   2008 14 12 Marcus Thames 227 60 9 0 22 40 47 18 0 61 0 0 1 0 3 6 .264 .317 .595 .912 39   5.4 0.6 6.0 .074 .008 .082 5.64 2008 14 12 Marcus Thames
2008 21 Matthew Joyce R DET 5C L 23 RF   60 94 2 3 0 .970   2008 21 Matthew Joyce 160 37 9 1 6 23 17 22 0 46 2 0 2 0 2 0 .231 .328 .413 .741 23   3.1 0.4 3.5 .052 .007 .058 2.77 2008 21 Matthew Joyce
2008 43 Jacque Jones DET 5C L 33   23 38 1 1 0 .975   2008 43 Jacque Jones 75 12 2 1 1 10 5 7 0 17 2 1 0 0 1 2 .160 .250 .253 .503 5   - 0.2 0.2 .000 .009 .009 0.06 2008 43 Jacque Jones
2008 32 Clete Thomas R DET 5C L 24   25 40 4 2 1 .957   2008 32 Clete Thomas 51 14 6 0 1 4 5 10 1 11 0 0 0 0 0 1 .275 .393 .451 .844 10   1.4 0.3 1.7 .056 .012 .068 1.45 2008 32 Clete Thomas
2008 39 Ryan Raburn DET 5C R 27 RF   30 29 2 1 0 .969   2008 39 Ryan Raburn 50 10 3 0 1 5 4 4 0 14 0 0 0 1 0 0 .200 .259 .320 .579 5   0.5 0.2 0.7 .017 .007 .023 0.35 2008 39 Ryan Raburn
     
2009 13 11 Ryan Raburn DET 2C R 28   70 112 9 5 2 .960   2009 13 11 Ryan Raburn 175 53 10 2 11 29 34 15 1 38 1 1 1 2 3 5 .303 .359 .571 .930 33   5.2 1.5 6.7 .074 .021 .096 6.66 2009 13 11 Ryan Raburn
2009 17 Carlos Guillen DET 2C B 33 DH   42 79 0 2 0 .975   2009 17 Carlos Guillen 140 31 6 2 7 21 24 24 2 30 0 0 2 1 2 5 .221 .331 .443 .774 20   2.7 0.7 3.4 .064 .017 .081 3.11 2009 17 Carlos Guillen
2009 31 Josh Anderson DET 2C L 26 CF,RF   48 66 3 2 0 .972   2009 31 Josh Anderson 119 29 4 3 0 12 10 7 0 14 0 0 0 9 1 4 .244 .286 .328 .614 11   0.8 0.7 1.5 .017 .015 .031 0.84 2009 31 Josh Anderson
2009 33 Clete Thomas R DET 2C L 25 RF   23 38 0 2 0 .950   2009 33 Clete Thomas 65 13 2 0 1 7 14 9 0 12 0 0 0 0 0 2 .200 .297 .277 .574 5   0.7 0.3 1.0 .030 .013 .043 0.67 2009 33 Clete Thomas
2009 32 Marcus Thames DET 2C R 32 DH   20 19 0 0 0 1.000   2009 32 Marcus Thames 59 14 2 1 4 9 11 6 0 15 0 0 3 0 0 2 .237 .294 .508 .802 9   0.9 0.2 1.1 .045 .010 .055 0.83 2009 32 Marcus Thames
     
2010 11 9 Ryan Raburn DET 3C R 29 RF   73 117 3 4 0 .968   2010 11 9 Ryan Raburn 234 68 16 0 9 36 40 14 0 60 4 1 1 0 1 7 .291 .340 .474 .814 36   6.0 0.8 6.8 .082 .011 .093 6.46 2010 11 9 Ryan Raburn
2010 13 Brennan Boesch R-T5 DET 3C L 25 RF   44 86 3 4 1 .957   2010 13 Brennan Boesch 160 46 12 1 6 19 30 18 2 25 0 0 0 1 0 0 .288 .360 .488 .848 30   4.8 0.5 5.3 .109 .011 .120 5.72 2010 13 Brennan Boesch
2010 25 Don Kelly R DET 3C L 30 1B   65 57 2 0 0 1.000   2010 25 Don Kelly 92 29 2 0 5 14 16 4 0 11 1 0 0 2 0 0 .315 .351 .500 .851 17   2.2 0.5 2.7 .034 .008 .042 1.72 2010 25 Don Kelly
2010 19 Johnny Damon DET 3C L 36 DH   33 51 2 2 1 .964   2010 19 Johnny Damon 116 38 11 1 2 25 10 20 0 20 0 0 0 4 1 2 .328 .426 .491 .917 26   3.9 0.3 4.2 .118 .009 .127 4.66 2010 19 Johnny Damon
Copyright 2009-11 by Andre Lower
Sources:
All-Time Major League Handbook
Win Shares Digital Update
baseball-reference.com
ESPN Baseball Encyclopedia